sensor_id;sensor_type;location;lat;lon;timestamp;pressure;altitude;pressure_sealevel;temperature;humidity
25560;BME280;13450;49.374;8.584;2023-04-26T00:00:42;100657.72;;;4.83;100.00
25560;BME280;13450;49.374;8.584;2023-04-26T00:03:07;100645.13;;;4.86;100.00
25560;BME280;13450;49.374;8.584;2023-04-26T00:05:33;100654.47;;;4.90;100.00
25560;BME280;13450;49.374;8.584;2023-04-26T00:07:59;100655.47;;;4.89;100.00
25560;BME280;13450;49.374;8.584;2023-04-26T00:10:30;100655.19;;;4.92;100.00
25560;BME280;13450;49.374;8.584;2023-04-26T00:13:00;100655.19;;;4.92;100.00
25560;BME280;13450;49.374;8.584;2023-04-26T00:15:26;100653.81;;;4.88;100.00
25560;BME280;13450;49.374;8.584;2023-04-26T00:17:51;100653.81;;;4.88;100.00
25560;BME280;13450;49.374;8.584;2023-04-26T00:20:17;100657.41;;;4.87;100.00
25560;BME280;13450;49.374;8.584;2023-04-26T00:22:42;100656.84;;;4.93;100.00
25560;BME280;13450;49.374;8.584;2023-04-26T00:25:08;100662.84;;;4.95;100.00
25560;BME280;13450;49.374;8.584;2023-04-26T00:27:33;100660.50;;;4.92;100.00
25560;BME280;13450;49.374;8.584;2023-04-26T00:30:03;100661.31;;;4.92;100.00
25560;BME280;13450;49.374;8.584;2023-04-26T00:32:31;100668.16;;;4.95;100.00
25560;BME280;13450;49.374;8.584;2023-04-26T00:34:59;100663.44;;;4.89;100.00
25560;BME280;13450;49.374;8.584;2023-04-26T00:37:24;100653.81;;;4.88;100.00
25560;BME280;13450;49.374;8.584;2023-04-26T00:39:50;100655.75;;;4.86;100.00
25560;BME280;13450;49.374;8.584;2023-04-26T00:42:15;100657.72;;;4.83;100.00
25560;BME280;13450;49.374;8.584;2023-04-26T00:44:41;100655.75;;;4.86;100.00
25560;BME280;13450;49.374;8.584;2023-04-26T00:47:06;100651.97;;;4.88;100.00
25560;BME280;13450;49.374;8.584;2023-04-26T00:49:35;100655.06;;;4.83;100.00
25560;BME280;13450;49.374;8.584;2023-04-26T00:52:01;100658.53;;;4.84;100.00
25560;BME280;13450;49.374;8.584;2023-04-26T00:54:29;100659.09;;;4.88;100.00
25560;BME280;13450;49.374;8.584;2023-04-26T00:56:57;100655.47;;;4.89;100.00
25560;BME280;13450;49.374;8.584;2023-04-26T00:59:23;100656.72;;;4.84;100.00
25560;BME280;13450;49.374;8.584;2023-04-26T01:01:48;100656.31;;;4.79;100.00
25560;BME280;13450;49.374;8.584;2023-04-26T01:04:14;100658.72;;;4.73;100.00
25560;BME280;13450;49.374;8.584;2023-04-26T01:06:40;100657.19;;;4.70;100.00
25560;BME280;13450;49.374;8.584;2023-04-26T01:09:06;100651.28;;;4.66;100.00
25560;BME280;13450;49.374;8.584;2023-04-26T01:11:34;100653.53;;;4.61;100.00
25560;BME280;13450;49.374;8.584;2023-04-26T01:14:02;100644.91;;;4.49;100.00
25560;BME280;13450;49.374;8.584;2023-04-26T01:16:28;100659.69;;;4.42;100.00
25560;BME280;13450;49.374;8.584;2023-04-26T01:18:54;100663.59;;;4.38;100.00
25560;BME280;13450;49.374;8.584;2023-04-26T01:21:21;100657.19;;;4.40;100.00
25560;BME280;13450;49.374;8.584;2023-04-26T01:23:51;100655.34;;;4.41;100.00
25560;BME280;13450;49.374;8.584;2023-04-26T01:26:17;100655.78;;;4.36;100.00
25560;BME280;13450;49.374;8.584;2023-04-26T01:28:43;100658.56;;;4.35;100.00
25560;BME280;13450;49.374;8.584;2023-04-26T01:31:08;100654.09;;;4.35;100.00
25560;BME280;13450;49.374;8.584;2023-04-26T01:33:34;100651.44;;;4.35;100.00
25560;BME280;13450;49.374;8.584;2023-04-26T01:35:59;100652.44;;;4.34;100.00
25560;BME280;13450;49.374;8.584;2023-04-26T01:38:32;100652.16;;;4.37;100.00
25560;BME280;13450;49.374;8.584;2023-04-26T01:40:57;100651.03;;;4.40;100.00
25560;BME280;13450;49.374;8.584;2023-04-26T01:43:22;100651.03;;;4.40;100.00
25560;BME280;13450;49.374;8.584;2023-04-26T01:45:48;100653.00;;;4.38;100.00
25560;BME280;13450;49.374;8.584;2023-04-26T01:48:16;100653.53;;;4.31;100.00
25560;BME280;13450;49.374;8.584;2023-04-26T01:50:42;100653.81;;;4.28;100.00
25560;BME280;13450;49.374;8.584;2023-04-26T01:53:07;100652.72;;;4.21;100.00
25560;BME280;13450;49.374;8.584;2023-04-26T01:55:33;100660.22;;;4.06;100.00
25560;BME280;13450;49.374;8.584;2023-04-26T01:58:01;100659.06;;;3.89;100.00
25560;BME280;13450;49.374;8.584;2023-04-26T02:00:28;100653.44;;;3.72;100.00
25560;BME280;13450;49.374;8.584;2023-04-26T02:02:56;100654.25;;;3.63;100.00
25560;BME280;13450;49.374;8.584;2023-04-26T02:05:24;100656.97;;;3.51;100.00
25560;BME280;13450;49.374;8.584;2023-04-26T02:07:49;100656.69;;;3.45;100.00
25560;BME280;13450;49.374;8.584;2023-04-26T02:10:15;100661.28;;;3.43;100.00
25560;BME280;13450;49.374;8.584;2023-04-26T02:12:41;100657.78;;;3.42;100.00
25560;BME280;13450;49.374;8.584;2023-04-26T02:15:07;100666.44;;;3.44;100.00
25560;BME280;13450;49.374;8.584;2023-04-26T02:17:32;100666.13;;;3.37;100.00
25560;BME280;13450;49.374;8.584;2023-04-26T02:19:58;100654.69;;;3.37;100.00
25560;BME280;13450;49.374;8.584;2023-04-26T02:22:23;100663.63;;;3.36;100.00
25560;BME280;13450;49.374;8.584;2023-04-26T02:24:50;100659.56;;;3.32;100.00
25560;BME280;13450;49.374;8.584;2023-04-26T02:27:16;100664.41;;;3.26;100.00
25560;BME280;13450;49.374;8.584;2023-04-26T02:29:42;100666.34;;;3.24;100.00
25560;BME280;13450;49.374;8.584;2023-04-26T02:32:07;100663.00;;;3.22;100.00
25560;BME280;13450;49.374;8.584;2023-04-26T02:34:36;100664.41;;;3.26;100.00
25560;BME280;13450;49.374;8.584;2023-04-26T02:37:01;100668.72;;;3.27;100.00
25560;BME280;13450;49.374;8.584;2023-04-26T02:39:28;100666.34;;;3.24;100.00
25560;BME280;13450;49.374;8.584;2023-04-26T02:41:53;100668.97;;;3.24;100.00
25560;BME280;13450;49.374;8.584;2023-04-26T02:44:19;100668.28;;;3.22;100.00
25560;BME280;13450;49.374;8.584;2023-04-26T02:46:45;100670.22;;;3.20;100.00
25560;BME280;13450;49.374;8.584;2023-04-26T02:49:10;100663.53;;;3.16;100.00
25560;BME280;13450;49.374;8.584;2023-04-26T02:51:35;100666.31;;;3.14;100.00
25560;BME280;13450;49.374;8.584;2023-04-26T02:54:01;100663.59;;;3.05;100.00
25560;BME280;13450;49.374;8.584;2023-04-26T02:56:27;100663.97;;;3.00;100.00
25560;BME280;13450;49.374;8.584;2023-04-26T02:58:52;100662.41;;;2.97;100.00
25560;BME280;13450;49.374;8.584;2023-04-26T03:01:17;100670.88;;;2.91;100.00
25560;BME280;13450;49.374;8.584;2023-04-26T03:03:43;100669.47;;;2.87;100.00
25560;BME280;13450;49.374;8.584;2023-04-26T03:06:08;100671.97;;;2.88;100.00
25560;BME280;13450;49.374;8.584;2023-04-26T03:08:34;100669.72;;;2.84;100.00
25560;BME280;13450;49.374;8.584;2023-04-26T03:11:00;100670.25;;;2.78;100.00
25560;BME280;13450;49.374;8.584;2023-04-26T03:13:26;100674.34;;;2.70;100.00
25560;BME280;13450;49.374;8.584;2023-04-26T03:15:51;100674.16;;;2.62;100.00
25560;BME280;13450;49.374;8.584;2023-04-26T03:18:18;100672.34;;;2.63;100.00
25560;BME280;13450;49.374;8.584;2023-04-26T03:20:44;100668.50;;;2.67;100.00
25560;BME280;13450;49.374;8.584;2023-04-26T03:23:12;100665.16;;;2.65;100.00
25560;BME280;13450;49.374;8.584;2023-04-26T03:25:38;100665.72;;;2.68;100.00
25560;BME280;13450;49.374;8.584;2023-04-26T03:28:04;100663.13;;;2.57;100.00
25560;BME280;13450;49.374;8.584;2023-04-26T03:30:31;100666.72;;;2.56;100.00
25560;BME280;13450;49.374;8.584;2023-04-26T03:32:57;100670.34;;;2.55;100.00
25560;BME280;13450;49.374;8.584;2023-04-26T03:35:22;100673.50;;;2.48;100.00
25560;BME280;13450;49.374;8.584;2023-04-26T03:37:47;100685.28;;;2.44;100.00
25560;BME280;13450;49.374;8.584;2023-04-26T03:40:15;100671.47;;;2.41;100.00
25560;BME280;13450;49.374;8.584;2023-04-26T03:42:43;100676.69;;;2.31;100.00
25560;BME280;13450;49.374;8.584;2023-04-26T03:45:09;100679.81;;;2.25;100.00
25560;BME280;13450;49.374;8.584;2023-04-26T03:47:43;100677.06;;;2.26;100.00
25560;BME280;13450;49.374;8.584;2023-04-26T03:50:08;100681.50;;;2.26;100.00
25560;BME280;13450;49.374;8.584;2023-04-26T03:52:34;100676.47;;;2.22;100.00
25560;BME280;13450;49.374;8.584;2023-04-26T03:54:59;100678.03;;;2.14;100.00
25560;BME280;13450;49.374;8.584;2023-04-26T03:57:25;100668.31;;;2.14;100.00
25560;BME280;13450;49.374;8.584;2023-04-26T03:59:50;100672.19;;;2.10;100.00
25560;BME280;13450;49.374;8.584;2023-04-26T04:02:16;100663.56;;;2.08;100.00
25560;BME280;13450;49.374;8.584;2023-04-26T04:04:41;100659.09;;;2.08;100.00
25560;BME280;13450;49.374;8.584;2023-04-26T04:07:06;100661.38;;;2.13;100.00
25560;BME280;13450;49.374;8.584;2023-04-26T04:09:32;100660.88;;;2.19;100.00
25560;BME280;13450;49.374;8.584;2023-04-26T04:11:57;100657.25;;;2.20;100.00
25560;BME280;13450;49.374;8.584;2023-04-26T04:14:23;100658.97;;;2.21;100.00
25560;BME280;13450;49.374;8.584;2023-04-26T04:16:48;100657.53;;;2.17;100.00
25560;BME280;13450;49.374;8.584;2023-04-26T04:19:13;100657.66;;;2.16;100.00
25560;BME280;13450;49.374;8.584;2023-04-26T04:22:11;100662.81;;;2.17;100.00
25560;BME280;13450;49.374;8.584;2023-04-26T04:24:36;100669.75;;;2.18;100.00
25560;BME280;13450;49.374;8.584;2023-04-26T04:27:02;100668.09;;;2.17;100.00
25560;BME280;13450;49.374;8.584;2023-04-26T04:29:31;100675.56;;;2.12;100.00
25560;BME280;13450;49.374;8.584;2023-04-26T04:32:02;100671.94;;;2.02;100.00
25560;BME280;13450;49.374;8.584;2023-04-26T04:34:27;100678.69;;;1.94;100.00
25560;BME280;13450;49.374;8.584;2023-04-26T04:36:59;100681.81;;;1.88;100.00
25560;BME280;13450;49.374;8.584;2023-04-26T04:39:25;100681.09;;;1.86;100.00
25560;BME280;13450;49.374;8.584;2023-04-26T04:41:52;100693.09;;;1.90;100.00
25560;BME280;13450;49.374;8.584;2023-04-26T04:44:18;100692.03;;;1.93;100.00
25560;BME280;13450;49.374;8.584;2023-04-26T04:46:44;100696.91;;;1.98;100.00
25560;BME280;13450;49.374;8.584;2023-04-26T04:49:11;100698.72;;;1.97;100.00
25560;BME280;13450;49.374;8.584;2023-04-26T04:51:38;100703.50;;;2.03;100.00
25560;BME280;13450;49.374;8.584;2023-04-26T04:56:35;100702.88;;;2.22;100.00
25560;BME280;13450;49.374;8.584;2023-04-26T04:59:02;100706.00;;;2.28;100.00
25560;BME280;13450;49.374;8.584;2023-04-26T05:01:32;100701.63;;;2.38;100.00
25560;BME280;13450;49.374;8.584;2023-04-26T05:03:58;100710.75;;;2.45;100.00
25560;BME280;13450;49.374;8.584;2023-04-26T05:06:26;100713.97;;;2.49;100.00
25560;BME280;13450;49.374;8.584;2023-04-26T05:08:52;100721.25;;;2.57;100.00
25560;BME280;13450;49.374;8.584;2023-04-26T05:11:18;100718.94;;;2.64;100.00
25560;BME280;13450;49.374;8.584;2023-04-26T05:13:45;100718.06;;;2.74;100.00
25560;BME280;13450;49.374;8.584;2023-04-26T05:16:10;100720.00;;;2.72;100.00
25560;BME280;13450;49.374;8.584;2023-04-26T05:18:36;100719.25;;;2.82;100.00
25560;BME280;13450;49.374;8.584;2023-04-26T05:21:01;100720.22;;;2.81;100.00
25560;BME280;13450;49.374;8.584;2023-04-26T05:23:26;100726.78;;;2.86;100.00
25560;BME280;13450;49.374;8.584;2023-04-26T05:25:52;100729.06;;;2.91;100.00
25560;BME280;13450;49.374;8.584;2023-04-26T05:28:17;100723.00;;;3.00;100.00
25560;BME280;13450;49.374;8.584;2023-04-26T05:30:43;100726.69;;;3.09;100.00
25560;BME280;13450;49.374;8.584;2023-04-26T05:33:08;100735.38;;;3.21;100.00
25560;BME280;13450;49.374;8.584;2023-04-26T05:35:34;100739.91;;;3.31;100.00
25560;BME280;13450;49.374;8.584;2023-04-26T05:37:59;100739.38;;;3.37;100.00
25560;BME280;13450;49.374;8.584;2023-04-26T05:40:25;100737.88;;;3.44;100.00
25560;BME280;13450;49.374;8.584;2023-04-26T05:42:52;100739.75;;;3.53;100.00
25560;BME280;13450;49.374;8.584;2023-04-26T05:45:17;100738.69;;;3.66;100.00
25560;BME280;13450;49.374;8.584;2023-04-26T05:47:43;100743.44;;;3.72;100.00
25560;BME280;13450;49.374;8.584;2023-04-26T05:50:09;100736.06;;;3.76;100.00
25560;BME280;13450;49.374;8.584;2023-04-26T05:52:34;100740.56;;;3.85;100.00
25560;BME280;13450;49.374;8.584;2023-04-26T05:54:59;100735.56;;;3.92;100.00
25560;BME280;13450;49.374;8.584;2023-04-26T05:57:28;100736.03;;;3.97;100.00
25560;BME280;13450;49.374;8.584;2023-04-26T05:59:53;100737.72;;;4.08;100.00
25560;BME280;13450;49.374;8.584;2023-04-26T06:02:18;100742.91;;;4.19;100.00
25560;BME280;13450;49.374;8.584;2023-04-26T06:04:44;100742.53;;;4.24;100.00
25560;BME280;13450;49.374;8.584;2023-04-26T06:07:10;100748.94;;;4.31;100.00
25560;BME280;13450;49.374;8.584;2023-04-26T06:09:35;100754.25;;;4.41;100.00
25560;BME280;13450;49.374;8.584;2023-04-26T06:12:04;100745.63;;;4.49;100.00
25560;BME280;13450;49.374;8.584;2023-04-26T06:14:29;100752.75;;;4.58;100.00
25560;BME280;13450;49.374;8.584;2023-04-26T06:16:56;100760.16;;;4.65;100.00
25560;BME280;13450;49.374;8.584;2023-04-26T06:19:21;100751.38;;;4.74;100.00
25560;BME280;13450;49.374;8.584;2023-04-26T06:21:46;100752.88;;;4.87;100.00
25560;BME280;13450;49.374;8.584;2023-04-26T06:24:13;100758.75;;;5.00;100.00
25560;BME280;13450;49.374;8.584;2023-04-26T06:26:38;100756.22;;;5.08;100.00
25560;BME280;13450;49.374;8.584;2023-04-26T06:29:04;100760.28;;;5.13;100.00
25560;BME280;13450;49.374;8.584;2023-04-26T06:31:30;100750.06;;;5.18;100.00
25560;BME280;13450;49.374;8.584;2023-04-26T06:33:55;100754.81;;;5.24;100.00
25560;BME280;13450;49.374;8.584;2023-04-26T06:36:23;100760.41;;;5.31;100.00
25560;BME280;13450;49.374;8.584;2023-04-26T06:38:49;100764.00;;;5.40;100.00
25560;BME280;13450;49.374;8.584;2023-04-26T06:41:14;100753.50;;;5.48;100.00
25560;BME280;13450;49.374;8.584;2023-04-26T06:43:42;100754.31;;;5.58;100.00
25560;BME280;13450;49.374;8.584;2023-04-26T06:46:10;100752.75;;;5.66;100.00
25560;BME280;13450;49.374;8.584;2023-04-26T06:48:35;100760.59;;;5.67;100.00
25560;BME280;13450;49.374;8.584;2023-04-26T06:51:07;100745.44;;;5.78;100.00
25560;BME280;13450;49.374;8.584;2023-04-26T06:53:34;100749.44;;;5.92;100.00
25560;BME280;13450;49.374;8.584;2023-04-26T06:56:00;100744.81;;;6.04;100.00
25560;BME280;13450;49.374;8.584;2023-04-26T06:58:25;100748.69;;;6.09;100.00
25560;BME280;13450;49.374;8.584;2023-04-26T07:00:50;100741.88;;;6.25;100.00
25560;BME280;13450;49.374;8.584;2023-04-26T07:03:18;100749.91;;;6.43;100.00
25560;BME280;13450;49.374;8.584;2023-04-26T07:05:46;100740.25;;;6.60;100.00
25560;BME280;13450;49.374;8.584;2023-04-26T07:08:12;100742.25;;;6.76;100.00
25560;BME280;13450;49.374;8.584;2023-04-26T07:10:40;100737.00;;;6.85;100.00
25560;BME280;13450;49.374;8.584;2023-04-26T07:13:05;100736.28;;;7.01;100.00
25560;BME280;13450;49.374;8.584;2023-04-26T07:15:31;100738.66;;;7.04;100.00
25560;BME280;13450;49.374;8.584;2023-04-26T07:17:57;100729.19;;;7.10;100.00
25560;BME280;13450;49.374;8.584;2023-04-26T07:20:24;100734.44;;;7.19;100.00
25560;BME280;13450;49.374;8.584;2023-04-26T07:22:50;100739.88;;;7.36;100.00
25560;BME280;13450;49.374;8.584;2023-04-26T07:25:16;100745.28;;;7.53;100.00
25560;BME280;13450;49.374;8.584;2023-04-26T07:27:41;100739.38;;;7.67;100.00
25560;BME280;13450;49.374;8.584;2023-04-26T07:30:07;100728.94;;;7.82;100.00
25560;BME280;13450;49.374;8.584;2023-04-26T07:32:33;100733.03;;;8.03;100.00
25560;BME280;13450;49.374;8.584;2023-04-26T07:34:58;100735.75;;;8.20;100.00
25560;BME280;13450;49.374;8.584;2023-04-26T07:37:23;100734.75;;;8.21;100.00
25560;BME280;13450;49.374;8.584;2023-04-26T07:39:49;100729.28;;;8.22;100.00
25560;BME280;13450;49.374;8.584;2023-04-26T07:42:14;100728.75;;;8.19;100.00
25560;BME280;13450;49.374;8.584;2023-04-26T07:44:39;100729.44;;;8.21;100.00
25560;BME280;13450;49.374;8.584;2023-04-26T07:47:10;100730.09;;;8.23;100.00
25560;BME280;13450;49.374;8.584;2023-04-26T07:49:36;100734.97;;;8.36;100.00
25560;BME280;13450;49.374;8.584;2023-04-26T07:52:04;100735.47;;;8.40;100.00
25560;BME280;13450;49.374;8.584;2023-04-26T07:54:29;100735.66;;;8.46;100.00
25560;BME280;13450;49.374;8.584;2023-04-26T07:56:55;100731.53;;;8.60;100.00
25560;BME280;13450;49.374;8.584;2023-04-26T07:59:21;100739.91;;;8.74;100.00
25560;BME280;13450;49.374;8.584;2023-04-26T08:01:46;100743.22;;;8.84;100.00
25560;BME280;13450;49.374;8.584;2023-04-26T08:04:12;100740.72;;;8.91;100.00
25560;BME280;13450;49.374;8.584;2023-04-26T08:06:37;100739.06;;;8.98;100.00
25560;BME280;13450;49.374;8.584;2023-04-26T08:09:03;100741.38;;;9.10;100.00
25560;BME280;13450;49.374;8.584;2023-04-26T08:11:29;100737.53;;;9.29;100.00
25560;BME280;13450;49.374;8.584;2023-04-26T08:13:54;100736.66;;;9.45;100.00
25560;BME280;13450;49.374;8.584;2023-04-26T08:16:19;100740.28;;;9.69;100.00
25560;BME280;13450;49.374;8.584;2023-04-26T08:18:45;100742.28;;;9.67;96.39
25560;BME280;13450;49.374;8.584;2023-04-26T08:21:10;100741.22;;;9.93;100.00
25560;BME280;13450;49.374;8.584;2023-04-26T08:23:36;100743.47;;;10.04;97.32
25560;BME280;13450;49.374;8.584;2023-04-26T08:26:03;100743.06;;;10.24;94.35
25560;BME280;13450;49.374;8.584;2023-04-26T08:28:29;100738.97;;;10.37;87.88
25560;BME280;13450;49.374;8.584;2023-04-26T08:30:54;100731.34;;;10.25;86.02
25560;BME280;13450;49.374;8.584;2023-04-26T08:33:20;100737.97;;;10.38;84.80
25560;BME280;13450;49.374;8.584;2023-04-26T08:35:45;100743.63;;;10.51;79.43
25560;BME280;13450;49.374;8.584;2023-04-26T08:38:10;100733.09;;;10.41;77.70
25560;BME280;13450;49.374;8.584;2023-04-26T08:40:40;100736.13;;;10.70;74.18
25560;BME280;13450;49.374;8.584;2023-04-26T08:43:07;100729.69;;;10.79;73.13
25560;BME280;13450;49.374;8.584;2023-04-26T08:45:37;100727.38;;;10.76;71.59
25560;BME280;13450;49.374;8.584;2023-04-26T08:48:05;100725.75;;;10.90;71.86
25560;BME280;13450;49.374;8.584;2023-04-26T08:50:37;100722.75;;;11.08;73.21
25560;BME280;13450;49.374;8.584;2023-04-26T08:53:04;100725.56;;;11.30;77.43
25560;BME280;13450;49.374;8.584;2023-04-26T08:55:32;100727.91;;;11.48;74.68
25560;BME280;13450;49.374;8.584;2023-04-26T08:57:58;100720.22;;;11.60;77.01
25560;BME280;13450;49.374;8.584;2023-04-26T09:00:24;100716.97;;;11.65;71.04
25560;BME280;13450;49.374;8.584;2023-04-26T09:02:51;100716.50;;;11.92;70.54
25560;BME280;13450;49.374;8.584;2023-04-26T09:05:18;100712.88;;;12.14;72.62
25560;BME280;13450;49.374;8.584;2023-04-26T09:07:47;100714.44;;;11.94;70.23
25560;BME280;13450;49.374;8.584;2023-04-26T09:10:17;100717.31;;;11.92;67.31
25560;BME280;13450;49.374;8.584;2023-04-26T09:12:45;100720.34;;;12.04;65.42
25560;BME280;13450;49.374;8.584;2023-04-26T09:15:10;100712.13;;;12.42;63.17
25560;BME280;13450;49.374;8.584;2023-04-26T09:17:37;100707.25;;;12.97;62.39
25560;BME280;13450;49.374;8.584;2023-04-26T09:20:22;100709.06;;;13.18;61.04
25560;BME280;13450;49.374;8.584;2023-04-26T09:22:52;100706.47;;;13.03;59.71
25560;BME280;13450;49.374;8.584;2023-04-26T09:25:27;100699.94;;;12.84;58.87
25560;BME280;13450;49.374;8.584;2023-04-26T09:27:53;100705.31;;;12.84;58.34
25560;BME280;13450;49.374;8.584;2023-04-26T09:30:19;100710.97;;;12.95;58.25
25560;BME280;13450;49.374;8.584;2023-04-26T09:32:56;100698.91;;;12.85;56.12
25560;BME280;13450;49.374;8.584;2023-04-26T09:35:29;100697.31;;;12.90;57.25
25560;BME280;13450;49.374;8.584;2023-04-26T09:38:18;100708.19;;;13.11;55.87
25560;BME280;13450;49.374;8.584;2023-04-26T09:40:52;100706.34;;;12.89;58.27
25560;BME280;13450;49.374;8.584;2023-04-26T09:43:23;100701.78;;;12.83;55.26
25560;BME280;13450;49.374;8.584;2023-04-26T09:45:53;100702.78;;;13.04;56.09
25560;BME280;13450;49.374;8.584;2023-04-26T09:50:47;100708.38;;;12.80;52.82
25560;BME280;13450;49.374;8.584;2023-04-26T09:55:53;100712.22;;;13.57;51.06
25560;BME280;13450;49.374;8.584;2023-04-26T09:58:18;100717.25;;;13.67;48.84
25560;BME280;13450;49.374;8.584;2023-04-26T10:00:50;100711.19;;;14.00;50.43
25560;BME280;13450;49.374;8.584;2023-04-26T10:03:19;100711.53;;;13.83;52.29
25560;BME280;13450;49.374;8.584;2023-04-26T10:05:45;100714.34;;;13.33;50.71
25560;BME280;13450;49.374;8.584;2023-04-26T10:08:13;100716.94;;;13.19;52.65
25560;BME280;13450;49.374;8.584;2023-04-26T10:10:42;100707.78;;;13.42;49.78
25560;BME280;13450;49.374;8.584;2023-04-26T10:13:14;100702.97;;;13.66;49.40
25560;BME280;13450;49.374;8.584;2023-04-26T10:15:40;100709.03;;;13.75;49.10
25560;BME280;13450;49.374;8.584;2023-04-26T10:18:07;100695.88;;;14.01;46.88
25560;BME280;13450;49.374;8.584;2023-04-26T10:20:39;100692.25;;;14.56;46.69
25560;BME280;13450;49.374;8.584;2023-04-26T10:25:47;100690.81;;;14.60;42.63
25560;BME280;13450;49.374;8.584;2023-04-26T10:28:14;100689.41;;;14.84;43.17
25560;BME280;13450;49.374;8.584;2023-04-26T10:30:56;100694.16;;;14.75;43.45
25560;BME280;13450;49.374;8.584;2023-04-26T10:33:24;100695.00;;;13.93;43.85
25560;BME280;13450;49.374;8.584;2023-04-26T10:38:32;100679.88;;;14.82;42.78
25560;BME280;13450;49.374;8.584;2023-04-26T10:41:37;100694.31;;;15.48;39.92
25560;BME280;13450;49.374;8.584;2023-04-26T10:44:43;100699.28;;;15.45;39.49
25560;BME280;13450;49.374;8.584;2023-04-26T10:49:50;100693.31;;;15.88;39.68
25560;BME280;13450;49.374;8.584;2023-04-26T10:52:19;100688.59;;;15.84;40.79
25560;BME280;13450;49.374;8.584;2023-04-26T10:54:54;100686.38;;;16.13;38.94
25560;BME280;13450;49.374;8.584;2023-04-26T10:57:21;100693.81;;;15.65;39.17
25560;BME280;13450;49.374;8.584;2023-04-26T11:02:45;100671.41;;;15.71;37.14
25560;BME280;13450;49.374;8.584;2023-04-26T11:10:51;100665.78;;;19.40;30.30
25560;BME280;13450;49.374;8.584;2023-04-26T11:13:17;100654.81;;;20.69;28.21
25560;BME280;13450;49.374;8.584;2023-04-26T11:15:43;100655.44;;;22.27;27.45
25560;BME280;13450;49.374;8.584;2023-04-26T11:18:09;100643.09;;;23.33;27.63
25560;BME280;13450;49.374;8.584;2023-04-26T11:20:34;100645.09;;;23.48;23.67
25560;BME280;13450;49.374;8.584;2023-04-26T11:23:00;100640.59;;;23.32;23.69
25560;BME280;13450;49.374;8.584;2023-04-26T11:25:28;100644.41;;;24.05;23.56
25560;BME280;13450;49.374;8.584;2023-04-26T11:28:02;100650.69;;;24.11;23.56
25560;BME280;13450;49.374;8.584;2023-04-26T11:30:31;100640.25;;;23.87;23.30
25560;BME280;13450;49.374;8.584;2023-04-26T11:33:00;100634.44;;;25.29;22.48
25560;BME280;13450;49.374;8.584;2023-04-26T11:35:31;100628.66;;;26.85;23.51
25560;BME280;13450;49.374;8.584;2023-04-26T11:37:58;100627.84;;;27.34;20.54
25560;BME280;13450;49.374;8.584;2023-04-26T11:40:30;100637.44;;;26.87;20.14
25560;BME280;13450;49.374;8.584;2023-04-26T11:43:05;100634.94;;;27.40;21.30
25560;BME280;13450;49.374;8.584;2023-04-26T11:45:32;100632.44;;;27.19;20.07
25560;BME280;13450;49.374;8.584;2023-04-26T11:47:59;100625.19;;;27.28;20.59
25560;BME280;13450;49.374;8.584;2023-04-26T11:50:25;100630.22;;;28.70;21.62
25560;BME280;13450;49.374;8.584;2023-04-26T11:52:58;100618.31;;;27.50;21.13
25560;BME280;13450;49.374;8.584;2023-04-26T11:55:27;100621.75;;;26.34;21.80
25560;BME280;13450;49.374;8.584;2023-04-26T11:57:53;100621.34;;;25.10;21.80
25560;BME280;13450;49.374;8.584;2023-04-26T12:00:19;100614.25;;;25.09;22.84
25560;BME280;13450;49.374;8.584;2023-04-26T12:02:48;100619.53;;;25.51;21.60
25560;BME280;13450;49.374;8.584;2023-04-26T12:05:20;100622.63;;;25.39;21.83
25560;BME280;13450;49.374;8.584;2023-04-26T12:07:49;100621.97;;;23.82;22.88
25560;BME280;13450;49.374;8.584;2023-04-26T12:10:19;100616.13;;;25.14;22.89
25560;BME280;13450;49.374;8.584;2023-04-26T12:12:49;100610.22;;;26.91;20.55
25560;BME280;13450;49.374;8.584;2023-04-26T12:15:18;100609.19;;;25.42;24.85
25560;BME280;13450;49.374;8.584;2023-04-26T12:20:18;100613.44;;;25.08;22.04
25560;BME280;13450;49.374;8.584;2023-04-26T12:23:04;100605.09;;;25.90;21.51
25560;BME280;13450;49.374;8.584;2023-04-26T12:25:30;100603.84;;;27.83;20.00
25560;BME280;13450;49.374;8.584;2023-04-26T12:27:56;100602.31;;;29.70;21.60
25560;BME280;13450;49.374;8.584;2023-04-26T12:30:22;100608.13;;;28.42;19.17
25560;BME280;13450;49.374;8.584;2023-04-26T12:32:47;100608.44;;;29.67;17.90
25560;BME280;13450;49.374;8.584;2023-04-26T12:35:13;100608.03;;;30.74;17.78
25560;BME280;13450;49.374;8.584;2023-04-26T12:37:38;100612.25;;;30.80;16.94
25560;BME280;13450;49.374;8.584;2023-04-26T12:40:04;100605.09;;;30.15;17.48
25560;BME280;13450;49.374;8.584;2023-04-26T12:42:31;100605.03;;;31.02;16.61
25560;BME280;13450;49.374;8.584;2023-04-26T12:44:56;100605.13;;;28.85;17.90
25560;BME280;13450;49.374;8.584;2023-04-26T12:47:21;100607.69;;;26.70;20.02
25560;BME280;13450;49.374;8.584;2023-04-26T12:49:49;100601.47;;;26.64;19.93
25560;BME280;13450;49.374;8.584;2023-04-26T12:52:14;100606.75;;;26.26;19.92
25560;BME280;13450;49.374;8.584;2023-04-26T12:54:40;100602.97;;;28.82;18.51
25560;BME280;13450;49.374;8.584;2023-04-26T12:57:05;100611.16;;;28.74;18.56
25560;BME280;13450;49.374;8.584;2023-04-26T12:59:31;100605.34;;;30.28;17.42
25560;BME280;13450;49.374;8.584;2023-04-26T13:01:56;100607.88;;;30.79;19.71
25560;BME280;13450;49.374;8.584;2023-04-26T13:04:21;100603.34;;;30.83;16.91
25560;BME280;13450;49.374;8.584;2023-04-26T13:06:47;100605.25;;;29.96;17.41
25560;BME280;13450;49.374;8.584;2023-04-26T13:09:12;100602.63;;;29.17;18.46
25560;BME280;13450;49.374;8.584;2023-04-26T13:11:40;100595.75;;;30.57;18.07
25560;BME280;13450;49.374;8.584;2023-04-26T13:14:05;100603.19;;;31.82;16.38
25560;BME280;13450;49.374;8.584;2023-04-26T13:16:32;100592.56;;;31.22;16.82